MMCU/CUU METAR and TAF weather

Enter ICAO airport designator
Station Type Date Time Source
MMCU METAR 2021/04/13 20:48 UTC NOAA

MMCU 132048Z 23004KT 10SM SKC 30/M10 A2992 RMK SLP021 57026 919


Station Type Date Time Source
MMCU Decoded METAR 2021/04/13 20:48 UTC NOAA

Chihuahua International Airport, Mexico (MMCU) 28-42N 105-58W
Apr 13, 2021 - 04:48 PM EDT / 2021.04.13 2048 UTC
Wind: from the SW (230 degrees) at 5 MPH (4 KT):0
Visibility: 10 mile(s):0
Sky conditions: clear
Temperature: 86 F (30 C)
Dew Point: 14 F (-10 C)
Relative Humidity: 6%
Pressure (altimeter): 29.92 in. Hg (1013 hPa)
Pressure tendency: 0.08 inches (2.6 hPa) lower than three hours ago
ob: MMCU 132048Z 23004KT 10SM SKC 30/M10 A2992 RMK SLP021 57026 919
cycle: 21

Station Type Date Time Source
MMCU TAF 2021/04/13 18:26 UTC NOAA

TAF MMCU 131718Z 1318/1418 16015KT P6SM SKC
BECMG 1400/1401 00000KT
FM141500 26010KT P6SM SKC

Example: see airport list